Terminal Aerodrome Forecast
Issued by NWS

Home | Current Version | Previous Version | Graphics & Text | Print | Product List | Glossary On
Versions: 1 2 3 4 5 6 7 8 9 10 11 12 13 14 15 16 17 18 19 20 21
000
FTUS43 KGRB 031100
TAFCWA
TAF
KCWA 031120Z 0312/0412 15007KT P6SM SCT030 OVC070
      TEMPO 0312/0315 3SM -SN SCT015 BKN025
     FM031500 19005KT 2SM -SN BR BKN004 OVC008
     FM031800 23009KT 6SM -SN BKN009 OVC020
     FM032000 27010KT P6SM -SN SCT009 OVC025
     FM040000 29011KT P6SM SCT020 BKN100
     FM040200 30012G20KT P6SM SCT100=

USA.gov is the U.S. government's official web portal to all federal, state and local government web resources and services.